sensor_id;sensor_type;location;lat;lon;timestamp;pressure;altitude;pressure_sealevel;temperature;humidity
19843;BME280;10082;51.038;6.992;2023-06-05T00:00:33;112171.53;;;-144.33;79.04
19843;BME280;10082;51.038;6.992;2023-06-05T00:03:01;112171.53;;;-144.33;78.96
19843;BME280;10082;51.038;6.992;2023-06-05T00:05:31;112171.53;;;-144.33;78.78
19843;BME280;10082;51.038;6.992;2023-06-05T00:07:58;112171.53;;;-144.33;78.46
19843;BME280;10082;51.038;6.992;2023-06-05T00:10:26;112171.53;;;-144.33;78.23
19843;BME280;10082;51.038;6.992;2023-06-05T00:12:53;112171.53;;;-144.33;78.74
19843;BME280;10082;51.038;6.992;2023-06-05T00:15:20;112171.53;;;-144.33;79.46
19843;BME280;10082;51.038;6.992;2023-06-05T00:17:47;112171.53;;;-144.33;79.63
19843;BME280;10082;51.038;6.992;2023-06-05T00:20:15;112171.53;;;-144.33;81.18
19843;BME280;10082;51.038;6.992;2023-06-05T00:22:43;112171.53;;;-144.33;81.74
19843;BME280;10082;51.038;6.992;2023-06-05T00:25:12;112171.53;;;-144.33;82.47
19843;BME280;10082;51.038;6.992;2023-06-05T00:27:43;112171.53;;;-144.33;83.67
19843;BME280;10082;51.038;6.992;2023-06-05T00:30:12;112171.53;;;-144.33;83.05
19843;BME280;10082;51.038;6.992;2023-06-05T00:32:41;112171.53;;;-144.33;84.01
19843;BME280;10082;51.038;6.992;2023-06-05T00:35:08;112171.53;;;-144.33;84.10
19843;BME280;10082;51.038;6.992;2023-06-05T00:37:36;112171.53;;;-144.33;87.88
19843;BME280;10082;51.038;6.992;2023-06-05T00:40:06;112171.53;;;-144.33;89.19
19843;BME280;10082;51.038;6.992;2023-06-05T00:42:35;112171.53;;;-144.33;88.33
19843;BME280;10082;51.038;6.992;2023-06-05T00:45:03;112171.53;;;-144.33;91.43
19843;BME280;10082;51.038;6.992;2023-06-05T00:47:32;112171.53;;;-144.33;90.97
19843;BME280;10082;51.038;6.992;2023-06-05T00:50:02;112171.53;;;-144.33;88.10
19843;BME280;10082;51.038;6.992;2023-06-05T00:52:29;112171.53;;;-144.33;83.65
19843;BME280;10082;51.038;6.992;2023-06-05T00:54:56;112171.53;;;-144.33;79.55
19843;BME280;10082;51.038;6.992;2023-06-05T00:57:27;112171.53;;;-144.33;78.29
19843;BME280;10082;51.038;6.992;2023-06-05T00:59:55;112171.53;;;-144.33;76.25
19843;BME280;10082;51.038;6.992;2023-06-05T01:02:22;112171.53;;;-144.33;76.37
19843;BME280;10082;51.038;6.992;2023-06-05T01:04:50;112171.53;;;-144.33;76.31
19843;BME280;10082;51.038;6.992;2023-06-05T01:07:17;112171.53;;;-144.33;74.69
19843;BME280;10082;51.038;6.992;2023-06-05T01:09:47;112171.53;;;-144.33;74.34
19843;BME280;10082;51.038;6.992;2023-06-05T01:12:22;112171.53;;;-144.33;74.10
19843;BME280;10082;51.038;6.992;2023-06-05T01:14:56;112171.53;;;-144.33;74.87
19843;BME280;10082;51.038;6.992;2023-06-05T01:17:24;112171.53;;;-144.33;76.30
19843;BME280;10082;51.038;6.992;2023-06-05T01:19:54;112171.53;;;-144.33;76.97
19843;BME280;10082;51.038;6.992;2023-06-05T01:22:25;112171.53;;;-144.33;78.77
19843;BME280;10082;51.038;6.992;2023-06-05T01:24:54;112171.53;;;-144.33;79.22
19843;BME280;10082;51.038;6.992;2023-06-05T01:27:26;112171.53;;;-144.33;79.76
19843;BME280;10082;51.038;6.992;2023-06-05T01:30:02;112171.53;;;-144.33;80.98
19843;BME280;10082;51.038;6.992;2023-06-05T01:32:34;112171.53;;;-144.33;83.27
19843;BME280;10082;51.038;6.992;2023-06-05T01:35:04;112171.53;;;-144.33;83.43
19843;BME280;10082;51.038;6.992;2023-06-05T01:37:33;112171.53;;;-144.33;83.63
19843;BME280;10082;51.038;6.992;2023-06-05T01:40:11;112171.53;;;-144.33;83.87
19843;BME280;10082;51.038;6.992;2023-06-05T01:42:40;112171.53;;;-144.33;84.90
19843;BME280;10082;51.038;6.992;2023-06-05T01:45:09;112171.53;;;-144.33;86.54
19843;BME280;10082;51.038;6.992;2023-06-05T01:47:38;112171.53;;;-144.33;88.37
19843;BME280;10082;51.038;6.992;2023-06-05T01:50:07;112171.53;;;-144.33;90.20
19843;BME280;10082;51.038;6.992;2023-06-05T01:52:40;112171.53;;;-144.33;91.29
19843;BME280;10082;51.038;6.992;2023-06-05T01:55:09;112171.53;;;-144.33;92.65
19843;BME280;10082;51.038;6.992;2023-06-05T01:57:40;112171.53;;;-144.33;94.70
19843;BME280;10082;51.038;6.992;2023-06-05T02:00:08;112171.53;;;-144.33;96.72
19843;BME280;10082;51.038;6.992;2023-06-05T02:02:42;112171.53;;;-144.33;98.12
19843;BME280;10082;51.038;6.992;2023-06-05T02:05:11;112171.53;;;-144.33;99.24
19843;BME280;10082;51.038;6.992;2023-06-05T02:07:39;112171.53;;;-144.33;100.00
19843;BME280;10082;51.038;6.992;2023-06-05T02:10:09;112171.53;;;-144.33;100.00
19843;BME280;10082;51.038;6.992;2023-06-05T02:12:37;112171.53;;;-144.33;100.00
19843;BME280;10082;51.038;6.992;2023-06-05T02:15:07;112171.53;;;-144.33;100.00
19843;BME280;10082;51.038;6.992;2023-06-05T02:17:38;112171.53;;;-144.33;100.00
19843;BME280;10082;51.038;6.992;2023-06-05T02:20:11;112171.53;;;-144.33;100.00
19843;BME280;10082;51.038;6.992;2023-06-05T02:22:38;112171.53;;;-144.33;100.00
19843;BME280;10082;51.038;6.992;2023-06-05T02:25:10;112171.53;;;-144.33;100.00
19843;BME280;10082;51.038;6.992;2023-06-05T02:27:37;112171.53;;;-144.33;100.00
19843;BME280;10082;51.038;6.992;2023-06-05T02:30:06;112171.53;;;-144.33;100.00
19843;BME280;10082;51.038;6.992;2023-06-05T02:32:34;112171.53;;;-144.33;100.00
19843;BME280;10082;51.038;6.992;2023-06-05T02:35:02;112171.53;;;-144.33;100.00
19843;BME280;10082;51.038;6.992;2023-06-05T02:37:30;112171.53;;;-144.33;100.00
19843;BME280;10082;51.038;6.992;2023-06-05T02:40:04;112171.53;;;-144.33;100.00
19843;BME280;10082;51.038;6.992;2023-06-05T02:42:35;112171.53;;;-144.33;100.00
19843;BME280;10082;51.038;6.992;2023-06-05T02:45:03;112171.53;;;-144.33;100.00
19843;BME280;10082;51.038;6.992;2023-06-05T02:47:31;112171.53;;;-144.33;100.00
19843;BME280;10082;51.038;6.992;2023-06-05T02:49:59;112171.53;;;-144.33;100.00
19843;BME280;10082;51.038;6.992;2023-06-05T02:52:29;112171.53;;;-144.33;100.00
19843;BME280;10082;51.038;6.992;2023-06-05T02:55:01;112171.53;;;-144.33;100.00
19843;BME280;10082;51.038;6.992;2023-06-05T02:57:31;112171.53;;;-144.33;100.00
19843;BME280;10082;51.038;6.992;2023-06-05T03:00:02;112171.53;;;-144.33;100.00
19843;BME280;10082;51.038;6.992;2023-06-05T03:02:36;112171.53;;;-144.33;100.00
19843;BME280;10082;51.038;6.992;2023-06-05T03:05:05;112171.53;;;-144.33;100.00
19843;BME280;10082;51.038;6.992;2023-06-05T03:07:32;112171.53;;;-144.33;100.00
19843;BME280;10082;51.038;6.992;2023-06-05T03:10:04;112171.53;;;-144.33;100.00
19843;BME280;10082;51.038;6.992;2023-06-05T03:12:32;112171.53;;;-144.33;100.00
19843;BME280;10082;51.038;6.992;2023-06-05T03:15:01;112171.53;;;-144.33;100.00
19843;BME280;10082;51.038;6.992;2023-06-05T03:17:30;112171.53;;;-144.33;100.00
19843;BME280;10082;51.038;6.992;2023-06-05T03:19:57;112171.53;;;-144.33;100.00
19843;BME280;10082;51.038;6.992;2023-06-05T03:22:24;112171.53;;;-144.33;100.00
19843;BME280;10082;51.038;6.992;2023-06-05T03:24:52;112171.53;;;-144.33;100.00
19843;BME280;10082;51.038;6.992;2023-06-05T03:27:19;112171.53;;;-144.33;100.00
19843;BME280;10082;51.038;6.992;2023-06-05T03:29:46;112171.53;;;-144.33;100.00
19843;BME280;10082;51.038;6.992;2023-06-05T03:32:16;112171.53;;;-144.33;100.00
19843;BME280;10082;51.038;6.992;2023-06-05T03:34:45;112171.53;;;-144.33;100.00
19843;BME280;10082;51.038;6.992;2023-06-05T03:37:16;112171.53;;;-144.33;100.00
19843;BME280;10082;51.038;6.992;2023-06-05T03:39:45;112171.53;;;-144.33;100.00
19843;BME280;10082;51.038;6.992;2023-06-05T03:42:12;112171.53;;;-144.33;100.00
19843;BME280;10082;51.038;6.992;2023-06-05T03:44:40;112171.53;;;-144.33;100.00
19843;BME280;10082;51.038;6.992;2023-06-05T03:47:07;112171.53;;;-144.33;100.00
19843;BME280;10082;51.038;6.992;2023-06-05T03:49:36;110106.75;;;-144.33;100.00
19843;BME280;10082;51.038;6.992;2023-06-05T03:52:12;102651.19;;;-144.33;100.00
19843;BME280;10082;51.038;6.992;2023-06-05T03:54:40;101109.13;;;-144.33;100.00
19843;BME280;10082;51.038;6.992;2023-06-05T03:57:11;100338.31;;;-144.33;100.00
19843;BME280;10082;51.038;6.992;2023-06-05T03:59:42;94946.72;;;-144.33;100.00
19843;BME280;10082;51.038;6.992;2023-06-05T04:02:09;89306.09;;;-144.33;100.00
19843;BME280;10082;51.038;6.992;2023-06-05T04:04:37;86744.78;;;-144.33;100.00
19843;BME280;10082;51.038;6.992;2023-06-05T04:07:05;82394.28;;;-144.33;100.00
19843;BME280;10082;51.038;6.992;2023-06-05T04:09:32;77793.00;;;-144.33;100.00
19843;BME280;10082;51.038;6.992;2023-06-05T04:11:59;76260.41;;;-144.33;100.00
19843;BME280;10082;51.038;6.992;2023-06-05T04:14:29;74473.13;;;-144.33;100.00
19843;BME280;10082;51.038;6.992;2023-06-05T04:16:56;74728.41;;;-144.33;100.00
19843;BME280;10082;51.038;6.992;2023-06-05T04:19:25;69880.94;;;-144.33;100.00
19843;BME280;10082;51.038;6.992;2023-06-05T04:21:56;69371.00;;;-144.33;100.00
19843;BME280;10082;51.038;6.992;2023-06-05T04:24:25;68351.38;;;-144.33;100.00
19843;BME280;10082;51.038;6.992;2023-06-05T04:26:53;67331.97;;;-144.33;100.00
19843;BME280;10082;51.038;6.992;2023-06-05T04:29:21;67331.97;;;-144.33;100.00
19843;BME280;10082;51.038;6.992;2023-06-05T04:31:48;67331.97;;;-144.33;100.00
19843;BME280;10082;51.038;6.992;2023-06-05T04:34:16;68606.25;;;-144.33;100.00
19843;BME280;10082;51.038;6.992;2023-06-05T04:36:44;70135.91;;;-144.33;100.00
19843;BME280;10082;51.038;6.992;2023-06-05T04:39:14;72941.81;;;-144.33;100.00
19843;BME280;10082;51.038;6.992;2023-06-05T04:41:46;74983.69;;;-144.33;100.00
19843;BME280;10082;51.038;6.992;2023-06-05T04:44:19;76771.19;;;-144.33;100.00
19843;BME280;10082;51.038;6.992;2023-06-05T04:46:47;80348.63;;;-144.33;100.00
19843;BME280;10082;51.038;6.992;2023-06-05T04:49:14;80348.63;;;-144.33;100.00
19843;BME280;10082;51.038;6.992;2023-06-05T04:51:42;79837.34;;;-144.33;100.00
19843;BME280;10082;51.038;6.992;2023-06-05T04:54:11;79326.16;;;-144.33;100.00
19843;BME280;10082;51.038;6.992;2023-06-05T04:56:40;77793.00;;;-144.33;100.00
19843;BME280;10082;51.038;6.992;2023-06-05T04:59:08;78559.50;;;-144.33;100.00
19843;BME280;10082;51.038;6.992;2023-06-05T05:01:36;80092.97;;;-144.33;100.00
19843;BME280;10082;51.038;6.992;2023-06-05T05:04:06;84441.00;;;-144.33;100.00
19843;BME280;10082;51.038;6.992;2023-06-05T05:06:33;86232.72;;;-144.33;100.00
19843;BME280;10082;51.038;6.992;2023-06-05T05:09:01;99053.97;;;-144.33;100.00
19843;BME280;10082;51.038;6.992;2023-06-05T05:11:29;112171.53;;;-144.33;100.00
19843;BME280;10082;51.038;6.992;2023-06-05T05:13:59;112171.53;;;-144.33;100.00
19843;BME280;10082;51.038;6.992;2023-06-05T05:16:27;112171.53;;;-144.33;100.00
19843;BME280;10082;51.038;6.992;2023-06-05T05:18:55;112171.53;;;-144.33;100.00
19843;BME280;10082;51.038;6.992;2023-06-05T05:21:22;112171.53;;;-144.33;100.00
19843;BME280;10082;51.038;6.992;2023-06-05T05:23:49;112171.53;;;-144.33;100.00
19843;BME280;10082;51.038;6.992;2023-06-05T05:26:17;112171.53;;;-144.33;100.00
19843;BME280;10082;51.038;6.992;2023-06-05T05:28:44;112171.53;;;-144.33;100.00
19843;BME280;10082;51.038;6.992;2023-06-05T05:31:12;112171.53;;;-144.33;100.00
19843;BME280;10082;51.038;6.992;2023-06-05T05:33:40;112171.53;;;-144.33;100.00
19843;BME280;10082;51.038;6.992;2023-06-05T05:36:07;112171.53;;;-144.33;100.00
19843;BME280;10082;51.038;6.992;2023-06-05T05:38:34;112171.53;;;-144.33;100.00
19843;BME280;10082;51.038;6.992;2023-06-05T05:41:01;112171.53;;;-144.33;100.00
19843;BME280;10082;51.038;6.992;2023-06-05T05:43:28;112171.53;;;-144.33;100.00
19843;BME280;10082;51.038;6.992;2023-06-05T05:45:56;112171.53;;;-144.33;100.00
19843;BME280;10082;51.038;6.992;2023-06-05T05:48:25;112171.53;;;-144.33;99.71
19843;BME280;10082;51.038;6.992;2023-06-05T05:50:52;112171.53;;;-144.33;97.77
19843;BME280;10082;51.038;6.992;2023-06-05T05:53:20;112171.53;;;-144.33;100.00
19843;BME280;10082;51.038;6.992;2023-06-05T05:55:47;112171.53;;;-144.33;100.00
19843;BME280;10082;51.038;6.992;2023-06-05T05:58:14;112171.53;;;-144.33;100.00
19843;BME280;10082;51.038;6.992;2023-06-05T06:00:42;112171.53;;;-144.33;100.00
19843;BME280;10082;51.038;6.992;2023-06-05T06:03:09;112171.53;;;-144.33;100.00
19843;BME280;10082;51.038;6.992;2023-06-05T06:05:40;112171.53;;;-144.33;100.00
19843;BME280;10082;51.038;6.992;2023-06-05T06:08:17;112171.53;;;-144.33;100.00
19843;BME280;10082;51.038;6.992;2023-06-05T06:10:44;112171.53;;;-144.33;100.00
19843;BME280;10082;51.038;6.992;2023-06-05T06:13:12;112171.53;;;-144.33;100.00
19843;BME280;10082;51.038;6.992;2023-06-05T06:15:39;112171.53;;;-144.33;100.00
19843;BME280;10082;51.038;6.992;2023-06-05T06:18:07;112171.53;;;-144.33;100.00
19843;BME280;10082;51.038;6.992;2023-06-05T06:20:34;112171.53;;;-144.33;100.00
19843;BME280;10082;51.038;6.992;2023-06-05T06:23:04;112171.53;;;-144.33;100.00
19843;BME280;10082;51.038;6.992;2023-06-05T06:25:31;112171.53;;;-144.33;100.00
19843;BME280;10082;51.038;6.992;2023-06-05T06:27:59;112171.53;;;-144.33;100.00
19843;BME280;10082;51.038;6.992;2023-06-05T06:30:27;112171.53;;;-144.33;99.85
19843;BME280;10082;51.038;6.992;2023-06-05T06:32:54;112171.53;;;-144.33;99.32
19843;BME280;10082;51.038;6.992;2023-06-05T06:35:24;112171.53;;;-144.33;96.63
19843;BME280;10082;51.038;6.992;2023-06-05T06:37:53;112171.53;;;-144.33;91.09
19843;BME280;10082;51.038;6.992;2023-06-05T06:40:22;112171.53;;;-144.33;86.48
19843;BME280;10082;51.038;6.992;2023-06-05T06:42:50;112171.53;;;-144.33;81.74
19843;BME280;10082;51.038;6.992;2023-06-05T06:45:34;112171.53;;;-144.33;85.86
19843;BME280;10082;51.038;6.992;2023-06-05T06:48:02;112171.53;;;-144.33;87.69
19843;BME280;10082;51.038;6.992;2023-06-05T06:50:29;112171.53;;;-144.33;87.46
19843;BME280;10082;51.038;6.992;2023-06-05T06:52:57;112171.53;;;-144.33;87.69
19843;BME280;10082;51.038;6.992;2023-06-05T06:55:25;112171.53;;;-144.33;81.33
19843;BME280;10082;51.038;6.992;2023-06-05T06:57:53;112171.53;;;-144.33;80.56
19843;BME280;10082;51.038;6.992;2023-06-05T07:00:20;112171.53;;;-144.33;80.34
19843;BME280;10082;51.038;6.992;2023-06-05T07:02:47;112171.53;;;-144.33;81.01
19843;BME280;10082;51.038;6.992;2023-06-05T07:05:14;112171.53;;;-144.33;78.26
19843;BME280;10082;51.038;6.992;2023-06-05T07:07:42;112171.53;;;-144.33;72.67
19843;BME280;10082;51.038;6.992;2023-06-05T07:10:09;112171.53;;;-144.33;68.84
19843;BME280;10082;51.038;6.992;2023-06-05T07:12:38;112171.53;;;-144.33;69.82
19843;BME280;10082;51.038;6.992;2023-06-05T07:15:06;112171.53;;;-144.33;67.16
19843;BME280;10082;51.038;6.992;2023-06-05T07:17:33;112171.53;;;-144.33;66.50
19843;BME280;10082;51.038;6.992;2023-06-05T07:20:00;112171.53;;;-144.33;67.89
19843;BME280;10082;51.038;6.992;2023-06-05T07:22:27;112171.53;;;-144.33;67.51
19843;BME280;10082;51.038;6.992;2023-06-05T07:24:56;112171.53;;;-144.33;64.85
19843;BME280;10082;51.038;6.992;2023-06-05T07:27:29;112171.53;;;-144.33;64.07
19843;BME280;10082;51.038;6.992;2023-06-05T07:29:58;112171.53;;;-144.33;62.22
19843;BME280;10082;51.038;6.992;2023-06-05T07:32:25;112171.53;;;-144.33;62.71
19843;BME280;10082;51.038;6.992;2023-06-05T07:34:53;112171.53;;;-144.33;65.53
19843;BME280;10082;51.038;6.992;2023-06-05T07:37:32;112171.53;;;-144.33;66.39
19843;BME280;10082;51.038;6.992;2023-06-05T07:39:59;112171.53;;;-144.33;65.82
19843;BME280;10082;51.038;6.992;2023-06-05T07:42:26;112171.53;;;-144.33;63.34
19843;BME280;10082;51.038;6.992;2023-06-05T07:44:53;112171.53;;;-144.33;63.96
19843;BME280;10082;51.038;6.992;2023-06-05T07:47:22;112171.53;;;-144.33;68.17
19843;BME280;10082;51.038;6.992;2023-06-05T07:49:56;112171.53;;;-144.33;69.89
19843;BME280;10082;51.038;6.992;2023-06-05T07:52:24;112171.53;;;-144.33;68.54
19843;BME280;10082;51.038;6.992;2023-06-05T07:54:51;112171.53;;;-144.33;65.64
19843;BME280;10082;51.038;6.992;2023-06-05T07:57:18;112171.53;;;-144.33;67.11
19843;BME280;10082;51.038;6.992;2023-06-05T07:59:48;112171.53;;;-144.33;65.69
19843;BME280;10082;51.038;6.992;2023-06-05T08:02:17;112171.53;;;-144.33;64.44
19843;BME280;10082;51.038;6.992;2023-06-05T08:04:46;112171.53;;;-144.33;63.63
19843;BME280;10082;51.038;6.992;2023-06-05T08:07:16;112171.53;;;-144.33;63.60
19843;BME280;10082;51.038;6.992;2023-06-05T08:09:43;112171.53;;;-144.33;62.62
19843;BME280;10082;51.038;6.992;2023-06-05T08:12:10;112171.53;;;-144.33;60.83
19843;BME280;10082;51.038;6.992;2023-06-05T08:14:37;112171.53;;;-144.33;59.20
19843;BME280;10082;51.038;6.992;2023-06-05T08:17:05;112171.53;;;-144.33;60.18
19843;BME280;10082;51.038;6.992;2023-06-05T08:19:32;112171.53;;;-144.33;59.45
19843;BME280;10082;51.038;6.992;2023-06-05T08:22:01;112171.53;;;-144.33;58.22
19843;BME280;10082;51.038;6.992;2023-06-05T08:24:29;112171.53;;;-144.33;55.99
19843;BME280;10082;51.038;6.992;2023-06-05T08:26:57;112171.53;;;-144.33;53.44
19843;BME280;10082;51.038;6.992;2023-06-05T08:29:25;112171.53;;;-144.33;54.43
19843;BME280;10082;51.038;6.992;2023-06-05T08:31:53;112171.53;;;-144.33;56.77
19843;BME280;10082;51.038;6.992;2023-06-05T08:34:21;112171.53;;;-144.33;54.47
19843;BME280;10082;51.038;6.992;2023-06-05T08:36:47;112171.53;;;-144.33;54.39
19843;BME280;10082;51.038;6.992;2023-06-05T08:39:16;112171.53;;;-144.33;47.45
19843;BME280;10082;51.038;6.992;2023-06-05T08:41:43;112171.53;;;-144.33;46.48
19843;BME280;10082;51.038;6.992;2023-06-05T08:44:11;112171.53;;;-144.33;50.31
19843;BME280;10082;51.038;6.992;2023-06-05T08:46:39;112171.53;;;-144.33;47.55
19843;BME280;10082;51.038;6.992;2023-06-05T08:49:08;112171.53;;;-144.33;47.76
19843;BME280;10082;51.038;6.992;2023-06-05T08:51:38;112171.53;;;-144.33;48.12
19843;BME280;10082;51.038;6.992;2023-06-05T08:54:08;112171.53;;;-144.33;48.03
19843;BME280;10082;51.038;6.992;2023-06-05T08:56:40;112171.53;;;-144.33;44.11
19843;BME280;10082;51.038;6.992;2023-06-05T08:59:08;112171.53;;;-144.33;42.18
19843;BME280;10082;51.038;6.992;2023-06-05T09:01:40;112171.53;;;-144.33;44.65
19843;BME280;10082;51.038;6.992;2023-06-05T09:04:07;112171.53;;;-144.33;43.08
19843;BME280;10082;51.038;6.992;2023-06-05T09:06:34;112171.53;;;-144.33;38.24
19843;BME280;10082;51.038;6.992;2023-06-05T09:09:02;112171.53;;;-144.33;36.39
19843;BME280;10082;51.038;6.992;2023-06-05T09:11:30;112171.53;;;-144.33;37.12
19843;BME280;10082;51.038;6.992;2023-06-05T09:14:01;112171.53;;;-144.33;37.05
19843;BME280;10082;51.038;6.992;2023-06-05T09:16:34;112171.53;;;-144.33;37.01
19843;BME280;10082;51.038;6.992;2023-06-05T09:19:03;112171.53;;;-144.33;37.77
19843;BME280;10082;51.038;6.992;2023-06-05T09:21:31;112171.53;;;-144.33;34.63
19843;BME280;10082;51.038;6.992;2023-06-05T09:24:12;112171.53;;;-144.33;33.87
19843;BME280;10082;51.038;6.992;2023-06-05T09:26:48;112171.53;;;-144.33;35.47
19843;BME280;10082;51.038;6.992;2023-06-05T09:29:28;112171.53;;;-144.33;36.99
19843;BME280;10082;51.038;6.992;2023-06-05T09:31:56;112171.53;;;-144.33;36.98
19843;BME280;10082;51.038;6.992;2023-06-05T09:34:25;112171.53;;;-144.33;35.13
19843;BME280;10082;51.038;6.992;2023-06-05T09:36:54;112171.53;;;-144.33;34.01
19843;BME280;10082;51.038;6.992;2023-06-05T09:39:23;112171.53;;;-144.33;31.92
19843;BME280;10082;51.038;6.992;2023-06-05T09:41:52;112171.53;;;-144.33;31.73
19843;BME280;10082;51.038;6.992;2023-06-05T09:44:19;112171.53;;;-144.33;30.06
19843;BME280;10082;51.038;6.992;2023-06-05T09:46:56;112171.53;;;-144.33;28.73
19843;BME280;10082;51.038;6.992;2023-06-05T09:49:29;112171.53;;;-144.33;29.01
19843;BME280;10082;51.038;6.992;2023-06-05T09:51:58;112171.53;;;-144.33;26.65
19843;BME280;10082;51.038;6.992;2023-06-05T09:54:26;112171.53;;;-144.33;26.70
19843;BME280;10082;51.038;6.992;2023-06-05T09:56:57;112171.53;;;-144.33;26.58
19843;BME280;10082;51.038;6.992;2023-06-05T09:59:28;112171.53;;;-144.33;26.00
19843;BME280;10082;51.038;6.992;2023-06-05T10:02:00;112171.53;;;-144.33;26.44
19843;BME280;10082;51.038;6.992;2023-06-05T10:04:40;112171.53;;;-144.33;26.25
19843;BME280;10082;51.038;6.992;2023-06-05T10:07:09;112171.53;;;-144.33;25.58
19843;BME280;10082;51.038;6.992;2023-06-05T10:09:37;112171.53;;;-144.33;24.41
19843;BME280;10082;51.038;6.992;2023-06-05T10:12:06;112171.53;;;-144.33;25.45
19843;BME280;10082;51.038;6.992;2023-06-05T10:14:34;112171.53;;;-144.33;24.29
19843;BME280;10082;51.038;6.992;2023-06-05T10:17:03;112171.53;;;-144.33;24.15
19843;BME280;10082;51.038;6.992;2023-06-05T10:19:30;112171.53;;;-144.33;24.63
19843;BME280;10082;51.038;6.992;2023-06-05T10:21:59;112171.53;;;-144.33;25.41
19843;BME280;10082;51.038;6.992;2023-06-05T10:24:30;112171.53;;;-144.33;25.70
19843;BME280;10082;51.038;6.992;2023-06-05T10:27:19;112171.53;;;-144.33;25.06
19843;BME280;10082;51.038;6.992;2023-06-05T10:30:12;112171.53;;;-144.33;24.82
19843;BME280;10082;51.038;6.992;2023-06-05T10:32:59;112171.53;;;-144.33;25.29
19843;BME280;10082;51.038;6.992;2023-06-05T10:35:41;112171.53;;;-144.33;24.63
19843;BME280;10082;51.038;6.992;2023-06-05T10:38:17;112171.53;;;-144.33;25.22
19843;BME280;10082;51.038;6.992;2023-06-05T10:40:46;112171.53;;;-144.33;25.12
19843;BME280;10082;51.038;6.992;2023-06-05T10:43:29;112171.53;;;-144.33;24.25
19843;BME280;10082;51.038;6.992;2023-06-05T10:45:58;112171.53;;;-144.33;24.44
19843;BME280;10082;51.038;6.992;2023-06-05T10:51:33;112171.53;;;-144.33;24.05
19843;BME280;10082;51.038;6.992;2023-06-05T10:54:03;112171.53;;;-144.33;24.22
19843;BME280;10082;51.038;6.992;2023-06-05T10:56:57;112171.53;;;-144.33;24.51
19843;BME280;10082;51.038;6.992;2023-06-05T10:59:26;112171.53;;;-144.33;27.31
19843;BME280;10082;51.038;6.992;2023-06-05T11:02:22;112171.53;;;-144.33;25.39
19843;BME280;10082;51.038;6.992;2023-06-05T11:05:20;112171.53;;;-144.33;25.64
19843;BME280;10082;51.038;6.992;2023-06-05T11:08:12;112171.53;;;-144.33;23.99
19843;BME280;10082;51.038;6.992;2023-06-05T11:11:02;112171.53;;;-144.33;23.37
19843;BME280;10082;51.038;6.992;2023-06-05T11:13:52;112171.53;;;-144.33;24.14
19843;BME280;10082;51.038;6.992;2023-06-05T11:16:25;112171.53;;;-144.33;23.46
19843;BME280;10082;51.038;6.992;2023-06-05T11:18:53;112171.53;;;-144.33;23.39
19843;BME280;10082;51.038;6.992;2023-06-05T11:21:20;112171.53;;;-144.33;22.84
19843;BME280;10082;51.038;6.992;2023-06-05T11:24:16;112171.53;;;-144.33;22.76
19843;BME280;10082;51.038;6.992;2023-06-05T11:26:43;112171.53;;;-144.33;23.11
19843;BME280;10082;51.038;6.992;2023-06-05T11:29:14;112171.53;;;-144.33;23.22
19843;BME280;10082;51.038;6.992;2023-06-05T11:31:43;112171.53;;;-144.33;21.84
19843;BME280;10082;51.038;6.992;2023-06-05T11:34:11;112171.53;;;-144.33;23.71
19843;BME280;10082;51.038;6.992;2023-06-05T11:36:39;112171.53;;;-144.33;22.35
19843;BME280;10082;51.038;6.992;2023-06-05T11:39:06;112171.53;;;-144.33;22.52
19843;BME280;10082;51.038;6.992;2023-06-05T11:41:43;112171.53;;;-144.33;23.22
19843;BME280;10082;51.038;6.992;2023-06-05T11:44:10;112171.53;;;-144.33;22.16
19843;BME280;10082;51.038;6.992;2023-06-05T11:46:38;112171.53;;;-144.33;23.51
19843;BME280;10082;51.038;6.992;2023-06-05T11:49:05;112171.53;;;-144.33;22.50
19843;BME280;10082;51.038;6.992;2023-06-05T11:51:33;112171.53;;;-144.33;22.21
19843;BME280;10082;51.038;6.992;2023-06-05T11:54:01;112171.53;;;-144.33;21.85
19843;BME280;10082;51.038;6.992;2023-06-05T11:56:29;112171.53;;;-144.33;22.57
19843;BME280;10082;51.038;6.992;2023-06-05T11:58:58;112171.53;;;-144.33;23.19
19843;BME280;10082;51.038;6.992;2023-06-05T12:01:25;112171.53;;;-144.33;23.81
19843;BME280;10082;51.038;6.992;2023-06-05T12:04:04;112171.53;;;-144.33;23.28
19843;BME280;10082;51.038;6.992;2023-06-05T12:06:32;112171.53;;;-144.33;22.36
19843;BME280;10082;51.038;6.992;2023-06-05T12:09:11;112171.53;;;-144.33;22.46
19843;BME280;10082;51.038;6.992;2023-06-05T12:11:41;112171.53;;;-144.33;24.83
19843;BME280;10082;51.038;6.992;2023-06-05T12:14:12;112171.53;;;-144.33;25.14
19843;BME280;10082;51.038;6.992;2023-06-05T12:16:40;112171.53;;;-144.33;24.01
19843;BME280;10082;51.038;6.992;2023-06-05T12:19:13;112171.53;;;-144.33;24.53
19843;BME280;10082;51.038;6.992;2023-06-05T12:21:41;112171.53;;;-144.33;24.32
19843;BME280;10082;51.038;6.992;2023-06-05T12:24:08;112171.53;;;-144.33;24.34
19843;BME280;10082;51.038;6.992;2023-06-05T12:26:49;112171.53;;;-144.33;24.44
19843;BME280;10082;51.038;6.992;2023-06-05T12:29:27;112171.53;;;-144.33;26.15
19843;BME280;10082;51.038;6.992;2023-06-05T12:31:55;112171.53;;;-144.33;24.64
19843;BME280;10082;51.038;6.992;2023-06-05T12:34:38;112171.53;;;-144.33;23.73
19843;BME280;10082;51.038;6.992;2023-06-05T12:37:06;112171.53;;;-144.33;23.76
19843;BME280;10082;51.038;6.992;2023-06-05T12:39:34;112171.53;;;-144.33;24.73
19843;BME280;10082;51.038;6.992;2023-06-05T12:42:02;112171.53;;;-144.33;25.75
19843;BME280;10082;51.038;6.992;2023-06-05T12:44:30;112171.53;;;-144.33;24.88